Time,TemperatureF,DewpointF,PressureIn,WindDirection,WindDirectionDegrees,WindSpeedMPH,WindSpeedGustMPH,Humidity,HourlyPrecipIn,Conditions,Clouds,dailyrainin,SoftwareType,DateUTC
2013-05-09 00:11:00,57.1,56.0,29.95,WNW,290,0.0,0.0,96,0.01,,,0.01,weatherlink.com 1.10,2013-05-09 04:11:00,
2013-05-09 00:26:00,56.8,56.0,29.95,WNW,291,0.0,0.0,96,0.01,,,0.01,weatherlink.com 1.10,2013-05-09 04:26:00,
2013-05-09 00:41:00,56.6,56.0,29.94,NW,304,0.0,0.0,96,0.01,,,0.01,weatherlink.com 1.10,2013-05-09 04:41:00,
2013-05-09 01:12:00,56.3,55.0,29.93,WNW,302,0.0,0.0,96,0.00,,,0.01,weatherlink.com 1.10,2013-05-09 05:12:00,
2013-05-09 01:27:00,56.1,55.0,29.93,WNW,302,0.0,1.0,96,0.00,,,0.01,weatherlink.com 1.10,2013-05-09 05:27:00,
2013-05-09 01:42:00,55.8,55.0,29.92,WNW,302,0.0,0.0,97,0.00,,,0.01,weatherlink.com 1.10,2013-05-09 05:42:00,
2013-05-09 01:57:00,55.2,54.0,29.92,WNW,302,0.0,0.0,96,0.00,,,0.01,weatherlink.com 1.10,2013-05-09 05:57:00,
2013-05-09 02:12:00,54.5,54.0,29.92,WNW,302,0.0,0.0,97,0.00,,,0.01,weatherlink.com 1.10,2013-05-09 06:12:00,
2013-05-09 02:27:00,54.3,54.0,29.92,NW,308,0.0,0.0,97,0.00,,,0.01,weatherlink.com 1.10,2013-05-09 06:27:00,
2013-05-09 02:42:00,54.0,53.0,29.91,NW,308,0.0,0.0,97,0.00,,,0.01,weatherlink.com 1.10,2013-05-09 06:42:00,
2013-05-09 02:57:00,53.7,53.0,29.91,NW,308,0.0,0.0,97,0.00,,,0.01,weatherlink.com 1.10,2013-05-09 06:57:00,
2013-05-09 03:12:00,53.2,52.0,29.91,NW,308,0.0,0.0,97,0.00,,,0.01,weatherlink.com 1.10,2013-05-09 07:12:00,
2013-05-09 03:27:00,53.0,52.0,29.91,NW,308,0.0,0.0,97,0.00,,,0.01,weatherlink.com 1.10,2013-05-09 07:27:00,
2013-05-09 03:42:00,53.4,53.0,29.91,NW,308,0.0,0.0,97,0.00,,,0.01,weatherlink.com 1.10,2013-05-09 07:42:00,
2013-05-09 03:57:00,53.5,53.0,29.91,WNW,301,0.0,0.0,97,0.00,,,0.01,weatherlink.com 1.10,2013-05-09 07:57:00,
2013-05-09 04:12:00,53.3,53.0,29.91,WNW,301,0.0,0.0,97,0.00,,,0.01,weatherlink.com 1.10,2013-05-09 08:12:00,
2013-05-09 04:27:00,53.0,52.0,29.91,WNW,300,0.0,0.0,97,0.00,,,0.01,weatherlink.com 1.10,2013-05-09 08:27:00,
2013-05-09 04:42:00,52.5,52.0,29.91,WNW,301,0.0,0.0,97,0.00,,,0.01,weatherlink.com 1.10,2013-05-09 08:42:00,
2013-05-09 04:57:00,52.3,52.0,29.91,WNW,301,0.0,0.0,97,0.00,,,0.01,weatherlink.com 1.10,2013-05-09 08:57:00,
2013-05-09 05:12:00,51.9,51.0,29.91,WNW,300,0.0,0.0,97,0.00,,,0.01,weatherlink.com 1.10,2013-05-09 09:12:00,
2013-05-09 05:27:00,51.6,51.0,29.91,WNW,301,0.0,0.0,97,0.00,,,0.01,weatherlink.com 1.10,2013-05-09 09:27:00,
2013-05-09 05:42:00,51.6,51.0,29.91,WNW,301,0.0,0.0,97,0.00,,,0.01,weatherlink.com 1.10,2013-05-09 09:42:00,
2013-05-09 05:57:00,51.9,51.0,29.92,WSW,239,0.0,0.0,97,0.00,,,0.01,weatherlink.com 1.10,2013-05-09 09:57:00,
2013-05-09 06:12:00,52.1,51.0,29.92,WSW,240,0.0,0.0,97,0.00,,,0.01,weatherlink.com 1.10,2013-05-09 10:12:00,
2013-05-09 06:27:00,52.6,52.0,29.93,WSW,243,0.0,0.0,97,0.00,,,0.01,weatherlink.com 1.10,2013-05-09 10:27:00,
2013-05-09 06:42:00,53.2,52.0,29.94,WSW,240,0.0,1.0,97,0.00,,,0.01,weatherlink.com 1.10,2013-05-09 10:42:00,
2013-05-09 06:57:00,53.7,53.0,29.94,SW,218,0.0,1.0,97,0.00,,,0.01,weatherlink.com 1.10,2013-05-09 10:57:00,
2013-05-09 07:12:00,54.3,54.0,29.94,West,278,0.0,1.0,97,0.00,,,0.01,weatherlink.com 1.10,2013-05-09 11:12:00,
2013-05-09 07:27:00,54.8,54.0,29.94,West,274,0.0,1.0,97,0.00,,,0.01,weatherlink.com 1.10,2013-05-09 11:27:00,
2013-05-09 07:42:00,54.8,54.0,29.95,WSW,249,0.0,2.0,97,0.00,,,0.01,weatherlink.com 1.10,2013-05-09 11:42:00,
2013-05-09 07:57:00,55.2,54.0,29.95,WSW,240,0.0,2.0,97,0.00,,,0.01,weatherlink.com 1.10,2013-05-09 11:57:00,
2013-05-09 08:12:00,55.2,54.0,29.96,WSW,243,0.0,6.0,97,0.00,,,0.01,weatherlink.com 1.10,2013-05-09 12:12:00,
2013-05-09 08:27:00,55.7,55.0,29.96,ESE,102,0.0,0.0,97,0.00,,,0.01,weatherlink.com 1.10,2013-05-09 12:27:00,
2013-05-09 08:42:00,55.9,55.0,29.96,SW,231,0.0,4.0,97,0.00,,,0.01,weatherlink.com 1.10,2013-05-09 12:42:00,
2013-05-09 08:57:00,56.9,56.0,29.96,SW,229,0.0,1.0,97,0.00,,,0.01,weatherlink.com 1.10,2013-05-09 12:57:00,
2013-05-09 09:12:00,56.9,56.0,29.97,ESE,117,0.0,6.0,96,0.00,,,0.01,weatherlink.com 1.10,2013-05-09 13:12:00,
2013-05-09 09:27:00,57.3,56.0,29.97,SW,236,3.0,5.0,96,0.00,,,0.01,weatherlink.com 1.10,2013-05-09 13:27:00,
2013-05-09 09:42:00,57.8,57.0,29.97,WNW,286,0.0,2.0,96,0.00,,,0.01,weatherlink.com 1.10,2013-05-09 13:42:00,
2013-05-09 09:58:00,58.9,58.0,29.98,East,80,0.0,2.0,95,0.00,,,0.01,weatherlink.com 1.10,2013-05-09 13:58:00,
2013-05-09 10:13:00,59.6,58.0,29.98,West,262,0.0,2.0,93,0.00,,,0.01,weatherlink.com 1.10,2013-05-09 14:13:00,
2013-05-09 10:28:00,60.2,58.0,29.98,WNW,293,0.0,3.0,91,0.00,,,0.01,weatherlink.com 1.10,2013-05-09 14:28:00,
2013-05-09 10:43:00,61.6,58.0,29.98,WNW,293,1.0,3.0,89,0.00,,,0.01,weatherlink.com 1.10,2013-05-09 14:43:00,
2013-05-09 10:58:00,61.7,58.0,29.98,WSW,248,0.0,2.0,88,0.00,,,0.01,weatherlink.com 1.10,2013-05-09 14:58:00,
2013-05-09 11:13:00,62.0,58.0,29.97,NE,34,0.0,2.0,87,0.00,,,0.01,weatherlink.com 1.10,2013-05-09 15:13:00,
2013-05-09 11:28:00,62.8,59.0,29.97,ESE,107,3.0,4.0,86,0.00,,,0.01,weatherlink.com 1.10,2013-05-09 15:28:00,
2013-05-09 11:43:00,64.6,60.0,29.97,ESE,111,0.0,3.0,84,0.00,,,0.01,weatherlink.com 1.10,2013-05-09 15:43:00,
2013-05-09 11:58:00,63.2,60.0,29.97,ESE,121,1.0,4.0,88,0.00,,,0.01,weatherlink.com 1.10,2013-05-09 15:58:00,
2013-05-09 12:13:00,62.7,60.0,29.97,East,101,4.0,6.0,90,0.00,,,0.01,weatherlink.com 1.10,2013-05-09 16:13:00,
2013-05-09 12:28:00,63.1,60.0,29.96,East,87,4.0,5.0,90,0.00,,,0.01,weatherlink.com 1.10,2013-05-09 16:28:00,
2013-05-09 12:43:00,63.6,61.0,29.96,ESE,121,2.0,6.0,90,0.00,,,0.01,weatherlink.com 1.10,2013-05-09 16:43:00,
2013-05-09 12:58:00,63.6,60.0,29.95,SE,140,1.0,5.0,89,0.00,,,0.01,weatherlink.com 1.10,2013-05-09 16:58:00,
2013-05-09 13:13:00,64.5,62.0,29.95,ESE,109,4.0,6.0,90,0.00,,,0.01,weatherlink.com 1.10,2013-05-09 17:13:00,
2013-05-09 13:28:00,68.1,61.0,29.94,SW,221,1.0,6.0,79,0.00,,,0.01,weatherlink.com 1.10,2013-05-09 17:28:00,
2013-05-09 13:43:00,68.2,62.0,29.94,ESE,112,4.0,7.0,80,0.00,,,0.01,weatherlink.com 1.10,2013-05-09 17:43:00,
2013-05-09 13:58:00,70.3,62.0,29.94,West,266,1.0,6.0,76,0.00,,,0.01,weatherlink.com 1.10,2013-05-09 17:58:00,
2013-05-09 14:13:00,73.1,61.0,29.94,North,353,1.0,5.0,67,0.00,,,0.01,weatherlink.com 1.10,2013-05-09 18:13:00,
2013-05-09 14:28:00,74.1,60.0,29.94,ESE,114,1.0,5.0,62,0.00,,,0.01,weatherlink.com 1.10,2013-05-09 18:28:00,
2013-05-09 14:43:00,71.6,62.0,29.93,ESE,115,1.0,6.0,72,0.00,,,0.01,weatherlink.com 1.10,2013-05-09 18:43:00,
2013-05-09 14:58:00,70.7,62.0,29.93,East,96,2.0,5.0,75,0.00,,,0.01,weatherlink.com 1.10,2013-05-09 18:58:00,
2013-05-09 15:13:00,70.4,62.0,29.93,East,85,3.0,6.0,75,0.00,,,0.01,weatherlink.com 1.10,2013-05-09 19:13:00,
2013-05-09 15:28:00,70.5,61.0,29.93,SW,219,1.0,4.0,73,0.00,,,0.01,weatherlink.com 1.10,2013-05-09 19:28:00,
2013-05-09 15:43:00,73.8,59.0,29.92,WNW,292,2.0,3.0,61,0.00,,,0.01,weatherlink.com 1.10,2013-05-09 19:43:00,
2013-05-09 16:13:00,74.0,60.0,29.92,West,264,0.0,5.0,61,0.00,,,0.01,weatherlink.com 1.10,2013-05-09 20:13:00,
2013-05-09 16:28:00,73.3,59.0,29.92,NNE,23,7.0,7.0,62,0.00,,,0.01,weatherlink.com 1.10,2013-05-09 20:28:00,
2013-05-09 16:43:00,75.1,61.0,29.92,West,269,1.0,5.0,62,0.00,,,0.01,weatherlink.com 1.10,2013-05-09 20:43:00,
2013-05-09 16:58:00,73.8,59.0,29.93,SW,226,2.0,5.0,61,0.00,,,0.01,weatherlink.com 1.10,2013-05-09 20:58:00,
2013-05-09 17:13:00,73.2,60.0,29.93,NW,305,0.0,3.0,64,0.00,,,0.01,weatherlink.com 1.10,2013-05-09 21:13:00,
2013-05-09 17:28:00,72.9,60.0,29.93,West,279,0.0,3.0,65,0.00,,,0.01,weatherlink.com 1.10,2013-05-09 21:28:00,
2013-05-09 17:43:00,73.5,61.0,29.92,SSW,208,0.0,1.0,64,0.00,,,0.01,weatherlink.com 1.10,2013-05-09 21:43:00,
2013-05-09 17:58:00,74.2,61.0,29.93,West,277,2.0,6.0,63,0.00,,,0.01,weatherlink.com 1.10,2013-05-09 21:58:00,
2013-05-09 18:13:00,73.8,60.0,29.93,WSW,246,1.0,5.0,63,0.00,,,0.01,weatherlink.com 1.10,2013-05-09 22:13:00,
2013-05-09 18:28:00,72.8,60.0,29.93,WSW,250,0.0,4.0,65,0.00,,,0.01,weatherlink.com 1.10,2013-05-09 22:28:00,
2013-05-09 18:43:00,71.9,60.0,29.93,NE,37,2.0,2.0,67,0.00,,,0.01,weatherlink.com 1.10,2013-05-09 22:43:00,
2013-05-09 18:58:00,71.4,61.0,29.93,West,264,0.0,4.0,69,0.00,,,0.01,weatherlink.com 1.10,2013-05-09 22:58:00,
2013-05-09 19:13:00,70.9,60.0,29.93,West,262,0.0,1.0,69,0.00,,,0.01,weatherlink.com 1.10,2013-05-09 23:13:00,
2013-05-09 19:28:00,70.2,60.0,29.94,West,262,0.0,0.0,71,0.00,,,0.01,weatherlink.com 1.10,2013-05-09 23:28:00,
2013-05-09 19:43:00,68.9,61.0,29.94,West,262,0.0,0.0,75,0.00,,,0.01,weatherlink.com 1.10,2013-05-09 23:43:00,
2013-05-09 19:58:00,67.5,60.0,29.95,West,261,0.0,0.0,78,0.00,,,0.01,weatherlink.com 1.10,2013-05-09 23:58:00,
2013-05-09 20:13:00,66.7,61.0,29.95,SE,140,0.0,1.0,83,0.00,,,0.01,weatherlink.com 1.10,2013-05-10 00:13:00,
2013-05-09 20:28:00,65.6,62.0,29.95,SE,140,0.0,1.0,88,0.00,,,0.01,weatherlink.com 1.10,2013-05-10 00:28:00,
2013-05-09 20:43:00,64.9,62.0,29.95,SE,140,0.0,0.0,90,0.00,,,0.01,weatherlink.com 1.10,2013-05-10 00:43:00,
2013-05-09 20:58:00,64.1,62.0,29.96,SE,140,0.0,0.0,91,0.00,,,0.01,weatherlink.com 1.10,2013-05-10 00:58:00,
2013-05-09 21:13:00,63.5,61.0,29.96,SSW,197,0.0,0.0,91,0.00,,,0.01,weatherlink.com 1.10,2013-05-10 01:13:00,
2013-05-09 21:28:00,62.8,61.0,29.97,SSW,197,0.0,0.0,92,0.00,,,0.01,weatherlink.com 1.10,2013-05-10 01:28:00,
2013-05-09 21:43:00,62.1,60.0,29.97,SSW,197,0.0,0.0,92,0.00,,,0.01,weatherlink.com 1.10,2013-05-10 01:43:00,
2013-05-09 21:58:00,61.5,60.0,29.98,SSW,198,0.0,0.0,93,0.00,,,0.01,weatherlink.com 1.10,2013-05-10 01:58:00,
2013-05-09 22:13:00,61.0,59.0,29.98,SSW,197,0.0,0.0,93,0.00,,,0.01,weatherlink.com 1.10,2013-05-10 02:13:00,
2013-05-09 22:28:00,60.8,59.0,29.97,SSW,197,0.0,0.0,94,0.00,,,0.01,weatherlink.com 1.10,2013-05-10 02:28:00,
2013-05-09 22:43:00,60.9,59.0,29.97,SW,226,0.0,0.0,94,0.00,,,0.01,weatherlink.com 1.10,2013-05-10 02:43:00,
2013-05-09 22:58:00,61.2,59.0,29.97,WSW,249,0.0,0.0,93,0.00,,,0.01,weatherlink.com 1.10,2013-05-10 02:58:00,
2013-05-09 23:13:00,61.2,59.0,29.97,WSW,249,0.0,0.0,93,0.00,,,0.01,weatherlink.com 1.10,2013-05-10 03:13:00,
2013-05-09 23:28:00,61.2,59.0,29.97,WSW,249,0.0,0.0,92,0.00,,,0.01,weatherlink.com 1.10,2013-05-10 03:28:00,
2013-05-09 23:44:00,61.1,59.0,29.97,WSW,250,0.0,0.0,92,0.00,,,0.01,weatherlink.com 1.10,2013-05-10 03:44:00,
2013-05-09 23:59:00,61.0,59.0,29.97,WSW,250,0.0,0.0,92,0.00,,,0.01,weatherlink.com 1.10,2013-05-10 03:59:00,